Latest Weather Observations for Morawa Airport

IDW60801

Issued at 12:33 pm WST Thursday 30 March 2017 (issued every 30 minutes, with the page automatically refreshed every 10 minutes)

About weather observations | Map of weather stations | Latest weather observations for WA | Other Formats
Station Details ID: 008296 Name: MORAWA AIRPORT Lat: -29.20 Lon: 116.02 Height: 271.4 m
Data from the previous 72 hours. | See also: Recent months at Morawa Airport
Date/Time
WST
Temp
°C
App
Temp
°C
Dew
Point
°C
Rel
Hum
%
Delta-T
°C
Wind Press
QNH
hPa
Press
MSL
hPa
Rain since
9am
mm
Dir  Spd
km/h
Gust
km/h
Spd
kts
Gust
kts
30/12:30pm 28.9 26.4 9.6 30 10.9 NE 13 24 7 13 1019.5 1018.0 0.0
30/12:00pm 27.8 24.5 9.6 32 10.2 NE 17 26 9 14 1019.8 1018.3 0.0
30/11:30am 27.0 23.4 9.8 34 9.7 NE 19 30 10 16 1020.3 1018.8 0.0
30/11:00am 26.3 22.6 10.0 36 9.1 NE 20 32 11 17 1020.5 1019.0 0.0
30/10:30am 25.0 21.2 9.7 38 8.5 NE 20 30 11 16 1020.9 1019.5 0.0
30/10:00am 24.2 20.0 9.8 40 8.0 NE 22 33 12 18 1021.4 1019.9 0.0
30/09:30am 22.9 18.8 10.0 44 7.1 ENE 22 32 12 17 1021.8 1020.3 0.0
30/09:00am 21.6 17.0 9.8 47 6.4 ENE 24 32 13 17 1022.1 1020.6 0.0
30/08:30am 20.3 16.1 9.8 51 5.7 ENE 22 33 12 18 1021.9 1020.4 0.0
30/08:00am 19.5 15.8 10.2 55 5.0 ENE 20 30 11 16 1021.8 1020.3 0.0
30/07:30am 18.6 15.9 10.2 58 4.5 ENE 15 22 8 12 1021.6 1020.1 0.0
30/07:00am 17.3 15.8 10.4 64 3.7 E 9 13 5 7 1021.4 1019.9 0.0
30/06:30am 16.6 15.1 10.5 67 3.3 ENE 9 15 5 8 1021.0 1019.6 0.0
30/06:00am 17.0 14.7 10.6 66 3.4 ENE 13 19 7 10 1020.8 1019.4 0.0
30/05:30am 17.3 15.1 10.7 65 3.6 ENE 13 19 7 10 1020.6 1019.1 0.0
30/05:00am 17.5 15.2 10.6 64 3.7 ENE 13 19 7 10 1020.6 1019.1 0.0
30/04:30am 18.0 14.9 10.4 61 4.1 ENE 17 22 9 12 1020.5 1019.0 0.0
30/04:00am 18.2 15.9 10.3 60 4.3 ENE 13 19 7 10 1020.5 1019.0 0.0
30/03:30am 18.5 15.6 9.8 57 4.7 ENE 15 22 8 12 1020.3 1018.8 0.0
30/03:00am 19.0 15.3 9.5 54 5.1 ENE 19 28 10 15 1020.3 1018.8 0.0
30/02:30am 19.4 15.7 9.3 52 5.4 ENE 19 24 10 13 1020.4 1018.9 0.0
30/02:00am 20.1 16.2 9.4 50 5.7 ENE 20 28 11 15 1020.5 1019.0 0.0
30/01:30am 20.5 16.8 9.4 49 6.0 E 19 28 10 15 1020.5 1019.0 0.0
30/01:00am 21.1 16.9 9.7 48 6.2 ENE 22 33 12 18 1020.4 1018.9 0.0
30/12:30am 20.9 17.9 9.2 47 6.3 E 15 22 8 12 1020.3 1018.8 0.0
30/12:00am 20.6 17.7 8.3 45 6.5 E 13 19 7 10 1020.1 1018.6 0.0
 
Date/Time
WST
Temp
°C
App
Temp
°C
Dew
Point
°C
Rel
Hum
%
Delta-T
°C
Wind Press
QNH
hPa
Press
MSL
hPa
Rain since
9am
mm
Dir  Spd
km/h
Gust
km/h
Spd
kts
Gust
kts
29/11:30pm 18.9 16.2 5.4 41 6.7 ESE 9 11 5 6 1020.1 1018.6 0.0
29/11:00pm 19.9 17.0 4.8 37 7.4 ESE 9 13 5 7 1020.2 1018.7 0.0
29/10:30pm 20.6 16.9 4.6 35 7.9 ESE 13 17 7 9 1020.1 1018.6 0.0
29/10:00pm 21.2 17.5 4.3 33 8.3 ESE 13 20 7 11 1020.2 1018.7 0.0
29/09:30pm 22.0 17.6 4.6 32 8.7 SE 17 22 9 12 1019.9 1018.4 0.0
29/09:00pm 21.6 18.1 5.5 35 8.1 SE 13 19 7 10 1019.9 1018.4 0.0
29/08:30pm 22.7 19.3 6.0 34 8.6 SE 13 19 7 10 1019.7 1018.2 0.0
29/08:00pm 22.7 19.8 6.5 35 8.4 SE 11 13 6 7 1019.4 1017.9 0.0
29/07:30pm 23.7 20.8 6.5 33 9.0 SE 11 15 6 8 1019.1 1017.6 0.0
29/07:00pm 24.9 21.6 6.6 31 9.6 SE 13 19 7 10 1018.8 1017.3 0.0
29/06:30pm 26.1 22.5 6.7 29 10.3 ESE 15 20 8 11 1018.5 1017.0 0.0
29/06:00pm 27.5 23.0 6.3 26 11.2 ESE 19 24 10 13 1018.2 1016.7 0.0
29/05:30pm 28.4 23.8 6.5 25 11.7 ESE 20 30 11 16 1018.1 1016.6 0.0
29/05:00pm 29.0 24.6 6.4 24 12.1 ESE 19 28 10 15 1018.0 1016.5 0.0
29/04:30pm 29.6 25.1 6.3 23 12.5 ESE 19 26 10 14 1017.9 1016.4 0.0
29/04:00pm 29.5 24.8 6.2 23 12.5 ESE 20 30 11 16 1017.9 1016.4 0.0
29/03:30pm 29.9 25.4 5.9 22 12.8 E 19 32 10 17 1018.0 1016.5 0.0
29/03:00pm 28.9 24.1 5.7 23 12.3 E 20 32 11 17 1018.3 1016.8 0.0
29/02:30pm 29.0 24.2 5.8 23 12.3 E 20 33 11 18 1018.5 1017.0 0.0
29/02:00pm 28.5 23.5 6.6 25 11.7 ESE 22 33 12 18 1018.8 1017.3 0.0
29/01:30pm 27.8 22.9 7.1 27 11.2 E 22 35 12 19 1019.1 1017.6 0.0
29/01:00pm 27.6 23.3 8.0 29 10.7 ESE 20 30 11 16 1019.5 1018.0 0.0
29/12:30pm 26.3 21.0 8.3 32 9.8 ESE 26 35 14 19 1019.9 1018.4 0.0
29/12:00pm 25.4 20.1 8.4 34 9.2 ESE 26 37 14 20 1020.3 1018.8 0.0
29/11:30am 24.5 19.0 9.3 38 8.4 ESE 28 35 15 19 1020.8 1019.4 0.0
29/11:00am 23.3 17.6 9.7 42 7.5 ESE 30 39 16 21 1021.4 1019.9 0.0
29/10:30am 22.5 17.6 10.0 45 6.9 ESE 26 43 14 23 1021.5 1020.0 0.0
29/10:00am 21.3 16.1 10.2 49 6.1 ESE 28 43 15 23 1021.8 1020.3 0.0
29/09:30am 20.3 14.7 10.1 52 5.6 ESE 30 41 16 22 1021.8 1020.3 0.0
29/09:00am 19.2 13.2 10.2 56 4.9 ESE 32 39 17 21 1021.7 1020.2 0.0
29/08:30am 17.8 11.8 10.2 61 4.1 SE 32 43 17 23 1021.7 1020.2 0.0
29/08:00am 17.0 12.5 10.1 64 3.7 ESE 24 35 13 19 1021.7 1020.2 0.0
29/07:30am 15.8 11.6 9.7 67 3.2 SE 22 33 12 18 1021.1 1019.7 0.0
29/07:00am 15.1 11.6 10.1 72 2.6 SE 19 26 10 14 1020.8 1019.4 0.0
29/06:30am 14.5 11.8 10.3 76 2.2 SE 15 24 8 13 1020.6 1019.1 0.0
29/06:00am 14.5 12.2 10.5 77 2.1 SE 13 17 7 9 1020.4 1018.9 0.0
29/05:30am 14.7 12.2 10.9 78 2.0 ESE 15 20 8 11 1020.0 1018.5 0.0
29/05:00am 14.6 11.8 11.2 80 1.8 SE 17 28 9 15 1019.7 1018.2 0.0
29/04:30am 14.8 12.1 11.6 81 1.7 SE 17 26 9 14 1019.4 1017.9 0.0
29/04:00am 14.6 12.7 11.7 83 1.6 SSE 13 19 7 10 1019.3 1017.8 0.0
29/03:30am 14.8 12.9 11.9 83 1.6 SSE 13 19 7 10 1019.2 1017.7 0.0
29/03:00am 15.0 13.2 12.1 83 1.6 SSE 13 20 7 11 1019.2 1017.7 0.0
29/02:30am 15.2 13.1 12.3 83 1.6 S 15 19 8 10 1019.3 1017.8 0.0
29/02:00am 15.2 13.9 12.5 84 1.5 SSE 11 15 6 8 1019.3 1017.8 0.0
29/01:30am 15.3 14.0 12.6 84 1.5 SSE 11 15 6 8 1019.3 1017.8 0.0
29/01:00am 15.7 13.7 12.8 83 1.6 SSE 15 20 8 11 1019.4 1017.9 0.0
29/12:30am 16.0 13.4 13.1 83 1.6 S 19 26 10 14 1019.4 1017.9 0.0
29/12:00am 16.2 14.0 13.3 83 1.6 S 17 26 9 14 1019.3 1017.8 0.0
 
Date/Time
WST
Temp
°C
App
Temp
°C
Dew
Point
°C
Rel
Hum
%
Delta-T
°C
Wind Press
QNH
hPa
Press
MSL
hPa
Rain since
9am
mm
Dir  Spd
km/h
Gust
km/h
Spd
kts
Gust
kts
28/11:30pm 16.6 14.1 13.5 82 1.8 S 19 26 10 14 1019.3 1017.8 0.0
28/11:00pm 17.2 14.4 13.1 77 2.3 S 20 30 11 16 1019.0 1017.5 0.0
28/10:30pm 17.8 14.5 12.9 73 2.8 S 22 33 12 18 1018.8 1017.3 0.0
28/10:00pm 18.6 15.6 12.1 66 3.6 S 19 26 10 14 1018.7 1017.2 0.0
28/09:30pm 19.4 15.5 12.2 63 4.1 S 24 33 13 18 1018.4 1016.9 0.0
28/09:00pm 20.5 16.8 11.4 56 5.1 S 22 32 12 17 1018.0 1016.5 0.0
28/08:30pm 22.0 17.6 10.5 48 6.4 S 24 37 13 20 1017.6 1016.1 0.0
28/08:00pm 23.3 19.2 4.3 29 9.5 S 15 22 8 12 1016.9 1015.4 0.0
28/07:30pm 24.3 19.6 1.2 22 11.0 S 15 20 8 11 1016.3 1014.8 0.0
28/07:00pm 25.2 20.8 -2.4 16 12.3 S 11 15 6 8 1015.8 1014.3 0.0
28/06:30pm 26.6 22.1 -3.1 14 13.2 SSW 11 17 6 9 1015.5 1014.0 0.0
28/06:00pm 28.4 23.1 -3.7 12 14.4 SSW 15 22 8 12 1015.3 1013.8 0.0
28/05:30pm 29.8 24.3 -5.1 10 15.4 SSW 15 22 8 12 1015.3 1013.8 0.0
28/05:00pm 30.5 25.1 -4.5 10 15.7 SSW 15 20 8 11 1015.2 1013.7 0.0
28/04:30pm 31.0 26.2 -2.9 11 15.7 SSW 13 22 7 12 1015.2 1013.7 0.0
28/04:00pm 31.5 26.1 -1.3 12 15.7 SSW 17 26 9 14 1015.2 1013.7 0.0
28/03:30pm 31.4 25.9 0.7 14 15.2 SW 19 30 10 16 1015.1 1013.6 0.0
28/03:00pm 31.4 27.0 2.6 16 14.7 SW 15 28 8 15 1015.2 1013.7 0.0
28/02:30pm 30.9 26.9 3.0 17 14.3 SW 13 28 7 15 1015.3 1013.8 0.0
28/02:00pm 31.1 27.3 4.0 18 14.1 SSW 13 22 7 12 1015.5 1014.0 0.0
28/01:30pm 29.9 27.0 4.5 20 13.3 SSE 9 20 5 11 1016.0 1014.5 0.0
28/01:00pm 30.2 27.9 4.8 20 13.3 SW 6 13 3 7 1016.3 1014.8 0.0
28/12:30pm 29.5 27.2 4.9 21 12.9 ESE 6 11 3 6 1016.8 1015.3 0.0
28/12:00pm 28.8 26.4 4.3 21 12.6 E 6 17 3 9 1017.2 1015.7 0.0
28/11:30am 27.8 25.8 7.1 27 11.2 SSE 7 11 4 6 1017.6 1016.1 0.0
28/11:00am 26.9 25.7 7.9 30 10.3 SW 4 6 2 3 1017.9 1016.4 0.0
28/10:30am 25.3 23.6 7.4 32 9.6 S 6 9 3 5 1018.1 1016.6 0.0
28/10:00am 24.1 21.9 5.5 30 9.5 SSE 6 7 3 4 1018.3 1016.8 0.0
28/09:30am 22.8 20.7 3.9 29 9.3 SSE 4 7 2 4 1018.4 1016.9 0.0
28/09:00am 20.7 18.6 2.0 29 8.7 NNE 2 6 1 3 1018.6 1017.1 0.0
28/08:30am 18.6 15.7 1.6 32 7.8 ESE 6 9 3 5 1018.4 1016.9 0.0
28/08:00am 16.6 13.5 1.5 36 6.8 SSE 7 9 4 5 1018.1 1016.6 0.0
28/07:30am 15.2 12.2 1.7 40 6.0 S 7 13 4 7 1018.0 1016.5 0.0
28/07:00am 13.5 11.0 1.8 45 5.1 S 4 6 2 3 1017.8 1016.3 0.0
28/06:30am 12.4 9.5 1.7 48 4.6 SSW 6 9 3 5 1017.6 1016.1 0.0
28/06:00am 12.6 9.2 1.6 47 4.8 SSW 9 9 5 5 1017.4 1015.8 0.0
28/05:30am 12.5 9.6 1.5 47 4.8 SW 6 9 3 5 1017.4 1015.8 0.0
28/05:00am 13.1 10.1 1.8 46 4.9 SSW 7 9 4 5 1017.1 1015.6 0.0
28/04:30am 13.0 10.1 1.4 45 5.0 SW 6 7 3 4 1017.1 1015.6 0.0
28/04:00am 13.7 10.2 1.4 43 5.4 SSW 9 11 5 6 1017.0 1015.5 0.0
28/03:30am 14.0 10.5 1.0 41 5.6 SSW 9 13 5 7 1017.2 1015.7 0.0
28/03:00am 14.4 11.2 1.0 40 5.8 SSW 7 9 4 5 1017.7 1016.2 0.0
28/02:30am 15.0 11.0 0.4 37 6.3 SSW 11 13 6 7 1017.8 1016.3 0.0
28/02:00am 15.4 11.3 0.0 35 6.6 SSW 11 13 6 7 1018.0 1016.5 0.0
28/01:30am 15.7 12.6 0.3 35 6.7 SSW 6 13 3 7 1018.3 1016.8 0.0
28/01:00am 16.9 13.6 0.1 32 7.3 SSE 7 9 4 5 1018.3 1016.8 0.0
28/12:30am 17.1 13.4 -0.1 31 7.5 SE 9 13 5 7 1018.3 1016.8 0.0
28/12:00am 18.1 14.5 0.3 30 7.9 SE 9 15 5 8 1018.3 1016.8 0.0
 
Date/Time
WST
Temp
°C
App
Temp
°C
Dew
Point
°C
Rel
Hum
%
Delta-T
°C
Wind Press
QNH
hPa
Press
MSL
hPa
Rain since
9am
mm
Dir  Spd
km/h
Gust
km/h
Spd
kts
Gust
kts
27/11:30pm 18.0 14.3 0.2 30 7.9 SE 9 11 5 6 1018.4 1016.9 0.0
27/11:00pm 18.2 14.2 0.4 30 7.9 SE 11 17 6 9 1018.3 1016.8 0.0
27/10:30pm 17.5 14.3 0.6 32 7.5 SSE 7 11 4 6 1018.4 1016.9 0.0
27/10:00pm 18.3 14.7 0.9 31 7.8 SSE 9 13 5 7 1018.4 1016.9 0.0
27/09:30pm 18.8 15.6 0.9 30 8.1 S 7 9 4 5 1018.3 1016.8 0.0
27/09:00pm 19.4 16.2 0.9 29 8.4 S 7 9 4 5 1018.2 1016.7 0.0
27/08:30pm 20.4 17.3 1.3 28 8.8 SSE 7 11 4 6 1017.8 1016.3 0.0
27/08:00pm 20.8 17.3 1.1 27 9.1 SSE 9 13 5 7 1017.2 1015.7 0.0
27/07:30pm 21.9 18.4 1.0 25 9.7 SSE 9 11 5 6 1017.1 1015.6 0.0
27/07:00pm 23.1 19.3 1.5 24 10.2 SSE 11 13 6 7 1016.7 1015.2 0.0
27/06:30pm 24.6 19.6 1.5 22 11.0 SSE 17 20 9 11 1016.4 1014.9 0.0
27/06:00pm 26.2 20.8 1.5 20 11.9 SSE 19 24 10 13 1016.3 1014.8 0.0
27/05:30pm 27.5 22.7 0.3 17 13.0 SE 15 22 8 12 1016.1 1014.6 0.0
27/05:00pm 28.2 23.6 -0.9 15 13.7 SE 13 19 7 10 1016.2 1014.7 0.0
27/04:30pm 28.3 23.0 -0.8 15 13.7 ESE 17 24 9 13 1016.3 1014.8 0.0
27/04:00pm 28.8 23.9 -0.4 15 13.9 SE 15 24 8 13 1016.6 1015.1 0.0
27/03:30pm 28.2 23.4 0.0 16 13.5 SE 15 22 8 12 1016.8 1015.3 0.0
27/03:00pm 27.8 22.7 0.5 17 13.1 SE 17 22 9 12 1017.1 1015.6 0.0
27/02:30pm 27.3 23.0 0.9 18 12.7 SSE 13 26 7 14 1017.4 1015.8 0.0
27/02:00pm 27.4 23.1 1.0 18 12.7 ESE 13 19 7 10 1017.7 1016.2 0.0
27/01:30pm 27.2 23.4 1.6 19 12.5 ESE 11 20 6 11 1018.2 1016.7 0.0
27/01:00pm 26.1 22.1 2.7 22 11.5 SE 13 24 7 13 1018.8 1017.3 0.0

Other Formats:

Comma delimited format used in spreadsheet applications
http://www.bom.gov.au/fwo/IDW60801/IDW60801.94417.axf

JavaScript Object Notation format (JSON) in row-major order
http://www.bom.gov.au/fwo/IDW60801/IDW60801.94417.json